Time;durP1;ratioP1;P1;durP2;ratioP2;P2;SDS_P1;SDS_P2;PMS_P1;PMS_P2;Temp;Humidity;BMP_temperature;BMP_pressure;BME280_temperature;BME280_humidity;BME280_pressure;Samples;Min_cycle;Max_cycle;Signal;HPM_P1;HPM_P2
2023/06/01 00:01:54;;;;;;;4.83;2.90;;;13.30;99.90;;;;;;5046490;28;20478;-69
2023/06/01 00:04:21;;;;;;;3.17;2.50;;;13.30;99.90;;;;;;5046686;28;20560;-69
2023/06/01 00:06:48;;;;;;;5.93;2.80;;;13.30;99.90;;;;;;5046240;28;20467;-70
2023/06/01 00:09:17;;;;;;;2.80;2.60;;;13.30;99.90;;;;;;5044607;28;20467;-69
2023/06/01 00:11:43;;;;;;;3.83;3.00;;;13.30;99.90;;;;;;5045116;28;20467;-70
2023/06/01 00:14:10;;;;;;;2.60;2.40;;;13.30;99.90;;;;;;5046325;28;20474;-69
2023/06/01 00:16:37;;;;;;;3.47;2.13;;;13.20;99.90;;;;;;5045755;28;20474;-69
2023/06/01 00:19:04;;;;;;;4.10;2.90;;;13.20;99.90;;;;;;5045930;28;20486;-69
2023/06/01 00:21:32;;;;;;;3.33;2.57;;;13.20;99.90;;;;;;5046141;28;20559;-69
2023/06/01 00:24:00;;;;;;;4.13;2.67;;;13.10;99.90;;;;;;5046282;28;20467;-69
2023/06/01 00:26:29;;;;;;;4.67;3.00;;;13.10;99.90;;;;;;5048140;28;20973;-69
2023/06/01 00:28:56;;;;;;;7.93;3.17;;;13.10;99.90;;;;;;5048481;28;20487;-69
2023/06/01 00:31:23;;;;;;;3.40;2.63;;;13.10;99.90;;;;;;5048832;28;20459;-69
2023/06/01 00:33:51;;;;;;;2.90;2.40;;;13.10;99.90;;;;;;5049169;28;20467;-69
2023/06/01 00:36:18;;;;;;;6.03;4.37;;;13.00;99.90;;;;;;5050291;28;20834;-69
2023/06/01 00:38:44;;;;;;;5.77;3.50;;;13.00;99.90;;;;;;5049408;28;20495;-69
2023/06/01 00:41:11;;;;;;;3.37;3.00;;;13.00;99.90;;;;;;5050048;28;20464;-69
2023/06/01 00:43:39;;;;;;;2.57;2.37;;;13.00;99.90;;;;;;5049671;28;20464;-69
2023/06/01 00:46:06;;;;;;;3.33;2.83;;;12.90;99.90;;;;;;5050269;28;20463;-68
2023/06/01 00:48:33;;;;;;;2.40;2.20;;;12.90;99.90;;;;;;5049820;28;20479;-68
2023/06/01 00:51:00;;;;;;;4.50;3.00;;;12.80;99.90;;;;;;5049739;28;20885;-69
2023/06/01 00:53:27;;;;;;;4.13;2.93;;;12.80;99.90;;;;;;5049967;28;20459;-69
2023/06/01 00:55:53;;;;;;;3.17;2.87;;;12.80;99.90;;;;;;5049631;28;20463;-69
2023/06/01 00:58:20;;;;;;;3.83;2.87;;;12.80;99.90;;;;;;5050367;28;20475;-68
2023/06/01 01:00:49;;;;;;;4.27;3.07;;;12.70;99.90;;;;;;5049880;28;20483;-69
2023/06/01 01:03:16;;;;;;;3.43;2.90;;;12.70;99.90;;;;;;5050277;28;20474;-68
2023/06/01 01:05:42;;;;;;;3.10;2.67;;;12.70;99.90;;;;;;5049899;28;20942;-69
2023/06/01 01:08:15;;;;;;;3.67;2.90;;;12.60;99.90;;;;;;5050197;28;21077;-69
2023/06/01 01:10:48;;;;;;;3.53;2.60;;;12.60;99.90;;;;;;5049335;28;20494;-68
2023/06/01 01:13:21;;;;;;;3.20;2.70;;;12.60;99.90;;;;;;5050311;28;20459;-69
2023/06/01 01:15:54;;;;;;;4.90;2.97;;;12.60;99.90;;;;;;5049847;28;20470;-69
2023/06/01 01:18:32;;;;;;;4.83;2.90;;;12.60;99.90;;;;;;5049956;28;20483;-69
2023/06/01 01:21:01;;;;;;;3.53;2.20;;;12.50;99.90;;;;;;5049624;28;20451;-69
2023/06/01 01:23:45;;;;;;;4.97;2.87;;;12.50;99.90;;;;;;5050028;28;20459;-69
2023/06/01 01:26:42;;;;;;;3.30;2.53;;;12.50;99.90;;;;;;5037670;28;20974;-69
2023/06/01 01:29:11;;;;;;;6.60;3.00;;;12.50;99.90;;;;;;5053798;28;20455;-69
2023/06/01 01:31:41;;;;;;;4.63;3.07;;;12.50;99.90;;;;;;5052940;28;20849;-69
2023/06/01 01:34:10;;;;;;;5.20;3.10;;;12.40;99.90;;;;;;5053605;28;20471;-69
2023/06/01 01:36:37;;;;;;;2.33;2.13;;;12.40;99.90;;;;;;5053342;28;20861;-69
2023/06/01 01:39:05;;;;;;;4.10;2.30;;;12.40;99.90;;;;;;5053247;28;20475;-69
2023/06/01 01:41:31;;;;;;;3.60;2.90;;;12.40;99.90;;;;;;5052987;28;20978;-69
2023/06/01 01:43:59;;;;;;;4.77;3.10;;;12.40;99.90;;;;;;5037042;28;20799;-68
2023/06/01 01:46:29;;;;;;;3.27;2.97;;;12.40;99.90;;;;;;5053437;28;20546;-69
2023/06/01 01:49:02;;;;;;;2.83;2.50;;;12.30;99.90;;;;;;5052892;28;20479;-69
2023/06/01 01:51:37;;;;;;;3.27;2.70;;;12.30;99.90;;;;;;5053110;28;20566;-69
2023/06/01 01:54:07;;;;;;;3.20;2.40;;;12.30;99.90;;;;;;5053207;28;20458;-69
2023/06/01 01:56:36;;;;;;;2.53;2.33;;;12.30;99.90;;;;;;5053222;28;20498;-69
2023/06/01 01:59:04;;;;;;;3.37;2.70;;;12.30;99.90;;;;;;5053064;28;20491;-68
2023/06/01 02:01:33;;;;;;;3.30;2.87;;;12.20;99.90;;;;;;5052733;28;20460;-69
2023/06/01 02:04:01;;;;;;;3.13;2.90;;;12.20;99.90;;;;;;5053046;28;20468;-69
2023/06/01 02:06:28;;;;;;;3.20;2.40;;;12.20;99.90;;;;;;5053051;28;20455;-68
2023/06/01 02:08:55;;;;;;;3.57;2.77;;;12.20;99.90;;;;;;5050078;28;20753;-69
2023/06/01 02:11:21;;;;;;;4.13;3.00;;;12.20;99.90;;;;;;5052382;28;20451;-69
2023/06/01 02:13:48;;;;;;;2.90;2.40;;;12.10;99.90;;;;;;5052501;28;20459;-68
2023/06/01 02:16:16;;;;;;;4.23;2.77;;;12.10;99.90;;;;;;5052929;28;20985;-68
2023/06/01 02:18:45;;;;;;;4.37;2.23;;;12.10;99.90;;;;;;5052200;28;20913;-69
2023/06/01 02:21:13;;;;;;;4.20;2.33;;;12.00;99.90;;;;;;5052466;28;20479;-69
2023/06/01 02:23:40;;;;;;;2.83;2.50;;;12.00;99.90;;;;;;5052855;28;20485;-69
2023/06/01 02:26:07;;;;;;;3.20;2.60;;;12.00;99.90;;;;;;5052915;28;20524;-69
2023/06/01 02:28:34;;;;;;;3.40;2.77;;;12.00;99.90;;;;;;5052760;28;20475;-68
2023/06/01 02:31:01;;;;;;;3.13;2.33;;;11.90;99.90;;;;;;5036242;28;20458;-69
2023/06/01 02:33:28;;;;;;;5.70;2.83;;;11.90;99.90;;;;;;5052529;28;20468;-69
2023/06/01 02:35:56;;;;;;;3.10;2.80;;;11.90;99.90;;;;;;5052115;28;20513;-69
2023/06/01 02:38:22;;;;;;;5.33;4.20;;;11.90;99.90;;;;;;5051867;28;20856;-69
2023/06/01 02:40:49;;;;;;;3.50;2.70;;;11.90;99.90;;;;;;5051440;28;20482;-69
2023/06/01 02:43:16;;;;;;;3.13;2.60;;;11.80;99.90;;;;;;5052417;28;20482;-69
2023/06/01 02:45:42;;;;;;;3.53;2.40;;;11.80;99.90;;;;;;5051938;28;20894;-69
2023/06/01 02:48:09;;;;;;;3.07;2.60;;;11.80;99.90;;;;;;5052159;28;20484;-69
2023/06/01 02:50:36;;;;;;;3.47;2.93;;;11.80;99.90;;;;;;5051759;28;20832;-69
2023/06/01 02:53:05;;;;;;;3.30;2.67;;;11.80;99.90;;;;;;5052140;28;20494;-68
2023/06/01 02:55:32;;;;;;;3.53;2.70;;;11.70;99.90;;;;;;5052079;28;20463;-69
2023/06/01 02:57:59;;;;;;;5.10;3.10;;;11.70;99.90;;;;;;5051775;28;20523;-69
2023/06/01 03:00:27;;;;;;;3.43;2.70;;;11.60;99.90;;;;;;5051484;28;20537;-69
2023/06/01 03:02:54;;;;;;;4.57;2.83;;;11.60;99.90;;;;;;5051668;28;20470;-69
2023/06/01 03:05:21;;;;;;;3.70;2.57;;;11.60;99.90;;;;;;5051875;28;20485;-69
2023/06/01 03:07:48;;;;;;;3.23;2.67;;;11.60;99.90;;;;;;5051420;28;20479;-69
2023/06/01 03:10:16;;;;;;;3.97;2.43;;;11.60;99.90;;;;;;5051088;28;20459;-69
2023/06/01 03:12:43;;;;;;;4.63;2.83;;;11.50;99.90;;;;;;5051482;28;20460;-69
2023/06/01 03:15:10;;;;;;;3.50;2.97;;;11.50;99.90;;;;;;5051552;28;21005;-70
2023/06/01 03:17:37;;;;;;;2.40;2.20;;;11.50;99.90;;;;;;5051561;28;20475;-69
2023/06/01 03:20:14;;;;;;;3.07;2.77;;;11.40;99.90;;;;;;5050907;28;20502;-70
2023/06/01 03:22:41;;;;;;;3.33;2.93;;;11.40;99.90;;;;;;5051532;28;20509;-71
2023/06/01 03:25:08;;;;;;;4.90;2.60;;;11.40;99.90;;;;;;5051532;28;20495;-69
2023/06/01 03:27:36;;;;;;;2.97;2.70;;;11.40;99.90;;;;;;5051063;28;20483;-69
2023/06/01 03:30:03;;;;;;;5.00;2.10;;;11.40;99.90;;;;;;5050333;28;20555;-69
2023/06/01 03:32:30;;;;;;;2.63;2.40;;;11.40;99.90;;;;;;5016660;28;20462;-69
2023/06/01 03:34:57;;;;;;;2.80;2.37;;;11.40;99.90;;;;;;5017316;28;20495;-69
2023/06/01 03:37:24;;;;;;;5.23;2.53;;;11.40;99.90;;;;;;5027569;28;20481;-69
2023/06/01 03:39:51;;;;;;;3.37;3.07;;;11.40;99.90;;;;;;5029736;28;20484;-68
2023/06/01 03:42:19;;;;;;;5.43;2.30;;;11.40;99.90;;;;;;5023556;28;20464;-69
2023/06/01 03:44:47;;;;;;;3.97;3.17;;;11.40;99.90;;;;;;5023806;28;20464;-70
2023/06/01 03:47:14;;;;;;;3.77;2.67;;;11.40;99.90;;;;;;5039478;28;20839;-69
2023/06/01 03:49:41;;;;;;;3.43;2.70;;;11.40;99.90;;;;;;5039495;28;20517;-69
2023/06/01 03:52:08;;;;;;;2.77;2.53;;;11.40;99.90;;;;;;5047462;28;20459;-69
2023/06/01 03:54:35;;;;;;;4.53;2.90;;;11.40;99.90;;;;;;5048177;28;20969;-69
2023/06/01 03:57:02;;;;;;;3.90;2.87;;;11.40;99.90;;;;;;5048053;28;20483;-69
2023/06/01 03:59:29;;;;;;;3.27;2.33;;;11.40;99.90;;;;;;5048105;28;20459;-69
2023/06/01 04:01:57;;;;;;;3.13;2.73;;;11.40;99.90;;;;;;5048283;28;20898;-69
2023/06/01 04:04:28;;;;;;;5.63;2.70;;;11.40;99.90;;;;;;5049030;28;20919;-69
2023/06/01 04:07:01;;;;;;;2.90;2.60;;;11.50;99.90;;;;;;5050329;28;20993;-69
2023/06/01 04:09:28;;;;;;;2.87;2.30;;;11.50;99.90;;;;;;5052014;28;20459;-68
2023/06/01 04:11:55;;;;;;;4.97;2.87;;;11.50;99.90;;;;;;5051066;28;20810;-68
2023/06/01 04:14:22;;;;;;;2.70;2.50;;;11.50;99.90;;;;;;5052137;28;20997;-68
2023/06/01 04:16:48;;;;;;;4.80;3.40;;;11.50;99.90;;;;;;5050681;28;20809;-68
2023/06/01 04:19:16;;;;;;;5.00;3.00;;;11.60;99.90;;;;;;5050832;28;20463;-68
2023/06/01 04:21:44;;;;;;;4.87;3.00;;;11.60;99.90;;;;;;5050304;28;20475;-68
2023/06/01 04:24:10;;;;;;;3.20;2.53;;;11.60;99.90;;;;;;5051079;28;20486;-67
2023/06/01 04:26:37;;;;;;;4.10;3.07;;;11.70;99.90;;;;;;5032652;28;20461;-68
2023/06/01 04:29:04;;;;;;;3.50;2.70;;;11.70;99.90;;;;;;5039606;28;20463;-68
2023/06/01 04:31:32;;;;;;;3.13;2.83;;;11.70;99.90;;;;;;5049028;28;21207;-68
2023/06/01 04:34:01;;;;;;;5.07;3.20;;;11.80;99.90;;;;;;5049328;28;20554;-67
2023/06/01 04:36:29;;;;;;;4.43;2.90;;;11.80;99.90;;;;;;5050383;28;20538;-67
2023/06/01 04:38:57;;;;;;;3.50;2.30;;;11.90;99.90;;;;;;5049619;28;21044;-68
2023/06/01 04:41:25;;;;;;;5.10;3.03;;;11.90;99.90;;;;;;5050089;28;20540;-68
2023/06/01 04:43:53;;;;;;;2.60;2.40;;;12.00;99.90;;;;;;5050003;28;20495;-68
2023/06/01 04:46:20;;;;;;;4.23;2.60;;;12.10;99.90;;;;;;5050333;28;20455;-68
2023/06/01 04:48:48;;;;;;;3.37;3.07;;;12.20;99.90;;;;;;5049698;28;20479;-68
2023/06/01 04:51:19;;;;;;;4.47;2.73;;;12.20;99.90;;;;;;5050027;28;20830;-68
2023/06/01 04:53:49;;;;;;;3.27;2.97;;;12.30;99.90;;;;;;5050120;28;20463;-68
2023/06/01 04:56:17;;;;;;;3.67;2.57;;;12.40;99.90;;;;;;5050263;28;20463;-68
2023/06/01 04:58:46;;;;;;;3.30;2.53;;;12.40;99.90;;;;;;5049707;28;20511;-67
2023/06/01 05:01:14;;;;;;;3.70;2.57;;;12.50;99.90;;;;;;5051956;28;21016;-68
2023/06/01 05:03:42;;;;;;;3.70;2.23;;;12.60;99.90;;;;;;5056940;28;20462;-68
2023/06/01 05:06:10;;;;;;;4.00;2.77;;;12.70;99.90;;;;;;5056392;28;20463;-67
2023/06/01 05:08:37;;;;;;;3.70;2.50;;;12.80;99.90;;;;;;5056246;28;20990;-66
2023/06/01 05:11:06;;;;;;;3.57;2.53;;;12.90;99.90;;;;;;5056137;28;20462;-69
2023/06/01 05:13:33;;;;;;;5.90;3.13;;;13.00;99.90;;;;;;5056690;28;20904;-69
2023/06/01 05:15:59;;;;;;;7.53;3.80;;;13.10;99.90;;;;;;5056358;28;20466;-69
2023/06/01 05:18:26;;;;;;;4.90;3.00;;;13.20;99.90;;;;;;5056422;28;20486;-69
2023/06/01 05:20:52;;;;;;;4.07;3.23;;;13.30;99.90;;;;;;5055698;28;20846;-70
2023/06/01 05:23:19;;;;;;;4.63;3.30;;;13.40;99.90;;;;;;5056646;28;20872;-69
2023/06/01 05:25:46;;;;;;;6.00;2.83;;;13.50;99.90;;;;;;5056243;28;20454;-68
2023/06/01 05:28:14;;;;;;;3.00;2.70;;;13.60;99.90;;;;;;5056346;28;20475;-69
2023/06/01 05:30:41;;;;;;;3.90;3.00;;;13.70;99.90;;;;;;5056118;28;20455;-69
2023/06/01 05:33:08;;;;;;;5.73;2.93;;;13.80;99.90;;;;;;5056203;28;20486;-69
2023/06/01 05:35:35;;;;;;;2.97;2.77;;;13.80;99.90;;;;;;5056456;28;20838;-69
2023/06/01 05:38:03;;;;;;;3.43;3.13;;;14.00;99.90;;;;;;5055925;28;20487;-69
2023/06/01 05:40:29;;;;;;;3.40;2.40;;;14.10;99.90;;;;;;5056000;28;21026;-69
2023/06/01 05:42:56;;;;;;;3.03;2.73;;;14.20;99.90;;;;;;5056207;28;20541;-69
2023/06/01 05:45:24;;;;;;;3.40;2.90;;;14.30;99.90;;;;;;5056413;28;20470;-69
2023/06/01 05:47:51;;;;;;;2.73;2.33;;;14.40;99.90;;;;;;5056123;28;20909;-68
2023/06/01 05:50:18;;;;;;;6.27;2.80;;;14.50;99.90;;;;;;5055957;28;20567;-69
2023/06/01 05:52:44;;;;;;;2.67;2.40;;;14.60;99.90;;;;;;5056561;28;20838;-69
2023/06/01 05:55:11;;;;;;;3.50;2.90;;;14.80;99.90;;;;;;5055973;28;20459;-70
2023/06/01 05:57:38;;;;;;;3.83;2.60;;;14.90;99.90;;;;;;5056306;28;20474;-69
2023/06/01 06:00:09;;;;;;;3.20;2.63;;;15.00;99.90;;;;;;5055255;28;20466;-69
2023/06/01 06:02:38;;;;;;;2.97;1.97;;;15.10;99.90;;;;;;5056468;28;20466;-69
2023/06/01 06:05:05;;;;;;;8.50;2.50;;;15.30;99.90;;;;;;5051440;28;20456;-69
2023/06/01 06:07:32;;;;;;;5.03;2.70;;;15.40;99.90;;;;;;5056025;28;20482;-69
2023/06/01 06:10:00;;;;;;;3.03;2.40;;;15.50;99.90;;;;;;5050450;28;20470;-68
2023/06/01 06:12:28;;;;;;;3.17;2.20;;;15.70;99.90;;;;;;5053759;28;20459;-69
2023/06/01 06:14:55;;;;;;;4.13;3.03;;;15.80;99.90;;;;;;5052220;28;20459;-68
2023/06/01 06:17:23;;;;;;;2.77;2.17;;;15.90;99.90;;;;;;5052512;28;20479;-69
2023/06/01 06:19:52;;;;;;;4.80;4.30;;;16.10;99.90;;;;;;5051936;28;21010;-69
2023/06/01 06:22:19;;;;;;;3.00;2.67;;;16.20;99.90;;;;;;5052477;28;20475;-68
2023/06/01 06:24:49;;;;;;;3.53;2.77;;;16.30;99.90;;;;;;5052351;28;20832;-69
2023/06/01 06:27:16;;;;;;;3.00;2.70;;;16.30;99.90;;;;;;5036474;28;20832;-68
2023/06/01 06:29:43;;;;;;;2.50;2.23;;;16.40;99.90;;;;;;5052138;28;20478;-69
2023/06/01 06:32:11;;;;;;;3.50;2.80;;;16.50;99.90;;;;;;5049156;28;20486;-69
2023/06/01 06:34:38;;;;;;;3.27;2.50;;;16.70;99.90;;;;;;5052619;28;20470;-69
2023/06/01 06:37:07;;;;;;;6.67;3.27;;;16.80;99.90;;;;;;5051150;28;20479;-69
2023/06/01 06:39:37;;;;;;;3.60;2.47;;;16.80;99.90;;;;;;5051816;28;20911;-68
2023/06/01 06:42:05;;;;;;;2.80;2.50;;;16.90;99.90;;;;;;5051567;28;20533;-69
2023/06/01 06:44:32;;;;;;;4.33;2.50;;;17.00;99.90;;;;;;5052514;28;21018;-69
2023/06/01 06:47:00;;;;;;;4.23;2.57;;;17.10;99.90;;;;;;5051762;28;20494;-69
2023/06/01 06:49:28;;;;;;;3.87;2.50;;;17.10;99.90;;;;;;5051854;28;20899;-69
2023/06/01 06:51:55;;;;;;;5.23;2.63;;;17.20;99.90;;;;;;5051621;28;20459;-69
2023/06/01 06:54:24;;;;;;;4.77;2.77;;;17.20;99.90;;;;;;5051893;28;20456;-69
2023/06/01 06:56:51;;;;;;;3.73;2.57;;;17.30;99.90;;;;;;5051968;28;20459;-68
2023/06/01 06:59:19;;;;;;;3.00;2.57;;;17.40;99.90;;;;;;5051731;28;20916;-68
2023/06/01 07:01:46;;;;;;;2.40;2.20;;;17.50;99.90;;;;;;5051182;28;20503;-68
2023/06/01 07:04:13;;;;;;;3.00;2.70;;;17.60;99.90;;;;;;5051526;28;20550;-68
2023/06/01 07:06:41;;;;;;;3.57;2.63;;;17.70;99.90;;;;;;5051885;28;20459;-68
2023/06/01 07:09:09;;;;;;;3.30;2.53;;;17.80;99.90;;;;;;5050974;28;20506;-68
2023/06/01 07:11:38;;;;;;;3.93;3.07;;;17.80;99.90;;;;;;5051436;28;20456;-68
2023/06/01 07:14:05;;;;;;;2.70;2.37;;;17.90;99.90;;;;;;5050906;28;20548;-67
2023/06/01 07:16:33;;;;;;;4.03;2.73;;;18.00;99.90;;;;;;5051564;28;20459;-68
2023/06/01 07:19:01;;;;;;;3.13;2.57;;;18.10;99.90;;;;;;5051540;28;20479;-68
2023/06/01 07:21:28;;;;;;;4.70;3.03;;;18.10;99.90;;;;;;5051371;28;21257;-69
2023/06/01 07:23:56;;;;;;;3.13;2.83;;;18.10;99.90;;;;;;5050482;28;20463;-68
2023/06/01 07:26:25;;;;;;;6.97;2.70;;;18.20;99.90;;;;;;5050548;28;20943;-68
2023/06/01 07:28:53;;;;;;;3.97;2.63;;;18.30;99.90;;;;;;5051078;28;20573;-69
2023/06/01 07:31:20;;;;;;;5.23;3.17;;;18.40;99.90;;;;;;5050596;28;20459;-68
2023/06/01 07:33:47;;;;;;;4.27;2.90;;;18.50;99.90;;;;;;5051359;28;20467;-68
2023/06/01 07:36:14;;;;;;;4.43;2.40;;;18.60;99.90;;;;;;5050873;28;20517;-68
2023/06/01 07:38:41;;;;;;;3.60;2.77;;;18.70;99.90;;;;;;5050362;28;20482;-68
2023/06/01 07:41:10;;;;;;;3.60;2.60;;;18.80;99.90;;;;;;5050246;28;20569;-68
2023/06/01 07:43:38;;;;;;;3.10;2.80;;;18.90;99.90;;;;;;5051197;28;20490;-67
2023/06/01 07:46:06;;;;;;;4.27;2.90;;;19.10;99.90;;;;;;5050509;28;20487;-68
2023/06/01 07:48:35;;;;;;;5.30;3.10;;;19.20;99.90;;;;;;5050792;28;20525;-68
2023/06/01 07:51:02;;;;;;;3.40;2.77;;;19.20;99.90;;;;;;5050093;28;20455;-68
2023/06/01 07:53:29;;;;;;;5.23;3.10;;;19.40;99.90;;;;;;5050854;28;20471;-68
2023/06/01 07:55:56;;;;;;;4.10;3.10;;;19.50;99.90;;;;;;5050716;28;20559;-69
2023/06/01 07:58:23;;;;;;;4.47;3.03;;;19.60;99.90;;;;;;5050851;28;20999;-68
2023/06/01 08:00:49;;;;;;;3.50;2.77;;;19.70;99.90;;;;;;5050067;28;20470;-68
2023/06/01 08:03:20;;;;;;;2.93;2.70;;;19.80;99.70;;;;;;5049976;28;20464;-68
2023/06/01 08:05:47;;;;;;;5.30;4.13;;;19.90;98.70;;;;;;5050879;28;21034;-68
2023/06/01 08:08:14;;;;;;;6.93;3.10;;;20.00;98.90;;;;;;5049890;28;20483;-69
2023/06/01 08:10:41;;;;;;;3.87;2.87;;;20.00;98.40;;;;;;5049958;28;20960;-68
2023/06/01 08:13:07;;;;;;;4.10;3.10;;;20.00;98.80;;;;;;5050181;28;20534;-69
2023/06/01 08:15:36;;;;;;;3.60;3.10;;;20.00;98.80;;;;;;5050000;28;20459;-68
2023/06/01 08:18:03;;;;;;;3.27;2.97;;;20.00;99.30;;;;;;5049802;28;20481;-69
2023/06/01 08:20:31;;;;;;;4.50;3.60;;;20.10;99.00;;;;;;5050082;28;20467;-69
2023/06/01 08:22:58;;;;;;;4.47;3.50;;;20.30;99.90;;;;;;5049942;28;20515;-69
2023/06/01 08:25:25;;;;;;;3.93;3.20;;;20.40;99.10;;;;;;5050328;28;20458;-69
2023/06/01 08:27:52;;;;;;;3.50;3.17;;;20.60;98.80;;;;;;5050023;28;21006;-69
2023/06/01 08:30:19;;;;;;;3.60;3.20;;;20.80;98.70;;;;;;5049230;28;20518;-69
2023/06/01 08:32:45;;;;;;;4.90;3.03;;;20.80;99.50;;;;;;5050226;28;20468;-68
2023/06/01 08:35:13;;;;;;;3.70;2.90;;;20.90;99.70;;;;;;5049804;28;20478;-69
2023/06/01 08:37:41;;;;;;;3.60;3.30;;;21.00;99.30;;;;;;5049950;28;20517;-68
2023/06/01 08:40:10;;;;;;;3.33;3.03;;;21.20;99.20;;;;;;5049245;28;20857;-69
2023/06/01 08:42:46;;;;;;;4.43;3.30;;;21.30;97.70;;;;;;5050333;28;20477;-69
2023/06/01 08:45:14;;;;;;;4.40;3.30;;;21.30;99.90;;;;;;5049579;28;20465;-69
2023/06/01 08:47:42;;;;;;;4.63;3.40;;;21.30;98.50;;;;;;5050263;28;20486;-68
2023/06/01 08:50:10;;;;;;;4.97;3.43;;;21.40;96.90;;;;;;5049133;28;20470;-69
2023/06/01 08:52:38;;;;;;;6.30;3.00;;;21.50;98.80;;;;;;5050253;28;20456;-69
2023/06/01 08:55:08;;;;;;;3.67;3.27;;;21.60;98.00;;;;;;5049736;28;20465;-68
2023/06/01 08:57:35;;;;;;;6.43;3.60;;;21.60;98.00;;;;;;5050657;28;20858;-69
2023/06/01 09:00:02;;;;;;;3.90;2.80;;;21.80;99.70;;;;;;5048939;28;20835;-69
2023/06/01 09:02:29;;;;;;;3.70;3.40;;;21.90;99.90;;;;;;5049321;28;21014;-68
2023/06/01 09:04:56;;;;;;;5.00;3.73;;;22.00;99.60;;;;;;5049848;28;20471;-69
2023/06/01 09:07:23;;;;;;;4.10;3.43;;;22.10;97.40;;;;;;5049802;28;20491;-69
2023/06/01 09:09:51;;;;;;;3.90;3.50;;;22.20;97.80;;;;;;5049731;28;20478;-69
2023/06/01 09:12:25;;;;;;;3.87;2.87;;;22.30;98.40;;;;;;5049951;28;20460;-69
2023/06/01 09:15:07;;;;;;;7.33;3.43;;;22.50;98.10;;;;;;5049921;28;20469;-69
2023/06/01 09:17:34;;;;;;;4.30;3.63;;;22.60;97.50;;;;;;5037156;28;20483;-69
2023/06/01 09:20:01;;;;;;;4.90;3.57;;;22.70;97.10;;;;;;5050159;28;20502;-68
2023/06/01 09:22:40;;;;;;;4.20;3.40;;;22.70;97.50;;;;;;5050315;28;20479;-69
2023/06/01 09:25:08;;;;;;;3.33;3.03;;;22.80;99.40;;;;;;5049882;28;20473;-69
2023/06/01 09:27:45;;;;;;;6.30;3.47;;;22.80;98.20;;;;;;5050155;28;21022;-69
2023/06/01 09:30:13;;;;;;;3.33;3.00;;;22.90;98.80;;;;;;5049170;28;20521;-69
2023/06/01 09:32:41;;;;;;;3.27;2.93;;;23.10;96.40;;;;;;5050384;28;20463;-68
2023/06/01 09:35:08;;;;;;;4.90;3.60;;;23.20;97.70;;;;;;5049397;28;20519;-68
2023/06/01 09:37:36;;;;;;;3.67;3.33;;;23.30;97.90;;;;;;5049578;28;21010;-69
2023/06/01 09:40:03;;;;;;;5.53;3.60;;;23.40;96.60;;;;;;5035801;28;20460;-68
2023/06/01 09:42:35;;;;;;;4.73;3.40;;;23.50;98.60;;;;;;5049943;28;20475;-68
2023/06/01 09:45:24;;;;;;;3.93;3.40;;;23.70;95.80;;;;;;5049260;28;21001;-69
2023/06/01 09:47:52;;;;;;;5.20;3.70;;;23.80;96.70;;;;;;5047583;28;20485;-69
2023/06/01 09:50:36;;;;;;;4.03;3.60;;;23.90;97.60;;;;;;5053417;28;20460;-68
2023/06/01 09:53:04;;;;;;;4.43;3.73;;;24.00;96.60;;;;;;5053127;28;20456;-68
2023/06/01 09:55:30;;;;;;;5.10;3.53;;;24.10;95.50;;;;;;5049073;28;20827;-68
2023/06/01 09:58:20;;;;;;;5.40;3.77;;;24.20;96.70;;;;;;5049346;28;20482;-68
2023/06/01 10:00:50;;;;;;;4.20;3.80;;;24.30;94.40;;;;;;5035790;28;20519;-67
2023/06/01 10:03:18;;;;;;;3.80;3.23;;;24.30;95.50;;;;;;5043133;28;20482;-68
2023/06/01 10:05:46;;;;;;;5.77;3.93;;;24.40;95.30;;;;;;5053050;28;20474;-68
2023/06/01 10:08:14;;;;;;;5.93;4.40;;;24.50;95.60;;;;;;5052424;28;20912;-67
2023/06/01 10:10:44;;;;;;;4.67;4.00;;;24.70;95.50;;;;;;5039829;28;20559;-68
2023/06/01 10:13:12;;;;;;;4.43;3.80;;;24.80;96.90;;;;;;5050768;28;20839;-67
2023/06/01 10:15:39;;;;;;;4.10;3.60;;;24.90;96.10;;;;;;5052235;28;20518;-67
2023/06/01 10:18:08;;;;;;;6.60;4.20;;;25.00;94.30;;;;;;5052420;28;20482;-67
2023/06/01 10:20:36;;;;;;;4.00;3.60;;;25.00;92.20;;;;;;5053172;28;20470;-67
2023/06/01 10:23:04;;;;;;;3.87;3.40;;;25.10;95.10;;;;;;5053221;28;20481;-67
2023/06/01 10:25:36;;;;;;;3.83;3.37;;;25.10;93.50;;;;;;5053160;28;20471;-67
2023/06/01 10:28:07;;;;;;;6.20;3.40;;;25.20;95.20;;;;;;5051969;28;20492;-67
2023/06/01 10:30:34;;;;;;;6.73;4.27;;;25.20;91.00;;;;;;5052154;28;20469;-67
2023/06/01 10:33:02;;;;;;;4.53;3.87;;;25.30;92.60;;;;;;5052451;28;20451;-67
2023/06/01 10:36:04;;;;;;;5.17;3.50;;;25.20;92.90;;;;;;5052462;28;20463;-67
2023/06/01 10:38:31;;;;;;;3.23;2.93;;;25.40;94.10;;;;;;5052466;28;20576;-66
2023/06/01 10:41:28;;;;;;;4.40;3.80;;;25.40;92.90;;;;;;5051781;28;20602;-67
2023/06/01 10:43:56;;;;;;;3.87;3.37;;;25.50;92.40;;;;;;5043127;28;20482;-67
2023/06/01 10:46:41;;;;;;;6.53;3.83;;;25.60;93.40;;;;;;5045525;28;20918;-67
2023/06/01 10:49:08;;;;;;;5.40;4.10;;;25.70;91.90;;;;;;5051552;28;20466;-67
2023/06/01 10:51:36;;;;;;;3.83;3.50;;;25.80;92.90;;;;;;5051436;28;20490;-67
2023/06/01 10:54:29;;;;;;;4.10;3.20;;;25.70;92.80;;;;;;5051360;28;20458;-67
2023/06/01 10:57:21;;;;;;;7.03;3.47;;;25.90;94.70;;;;;;5051922;28;20470;-67
2023/06/01 11:00:36;;;;;;;4.77;3.70;;;26.00;93.90;;;;;;5051392;28;20545;-66
2023/06/01 11:03:05;;;;;;;4.40;3.57;;;26.20;93.70;;;;;;5051557;28;20484;-68
2023/06/01 11:05:40;;;;;;;4.83;3.60;;;26.20;92.40;;;;;;5051300;28;20466;-67
2023/06/01 11:08:09;;;;;;;5.67;3.43;;;26.30;91.90;;;;;;5051450;28;20483;-67
2023/06/01 11:10:58;;;;;;;3.63;3.33;;;26.20;90.20;;;;;;5051327;28;20844;-67
2023/06/01 11:13:27;;;;;;;4.00;3.60;;;26.30;92.40;;;;;;5051763;28;21078;-67
2023/06/01 11:16:28;;;;;;;4.10;3.50;;;26.40;91.40;;;;;;5051403;28;20461;-67
2023/06/01 11:18:58;;;;;;;3.13;2.83;;;26.50;91.90;;;;;;5051285;28;20574;-67
2023/06/01 11:21:27;;;;;;;3.33;3.03;;;26.70;90.80;;;;;;5050695;28;20469;-67
2023/06/01 11:23:57;;;;;;;3.67;3.30;;;26.80;93.50;;;;;;5051291;28;20479;-68
2023/06/01 11:26:27;;;;;;;4.10;3.53;;;27.00;92.40;;;;;;5050703;28;20470;-68
2023/06/01 11:29:03;;;;;;;4.70;3.70;;;27.10;91.20;;;;;;5049781;28;21016;-67
2023/06/01 11:31:36;;;;;;;5.67;3.60;;;27.30;92.70;;;;;;5050259;28;20474;-68
2023/06/01 11:34:03;;;;;;;3.80;3.43;;;27.50;91.60;;;;;;5050499;28;20463;-68
2023/06/01 11:36:30;;;;;;;3.67;3.37;;;27.70;91.30;;;;;;5050265;28;20466;-68
2023/06/01 11:38:58;;;;;;;3.83;3.50;;;27.70;91.00;;;;;;5050228;28;20491;-67
2023/06/01 11:41:26;;;;;;;3.80;3.40;;;27.70;91.80;;;;;;5049723;28;20463;-68
2023/06/01 11:43:56;;;;;;;3.97;3.40;;;27.90;89.30;;;;;;5050398;28;20487;-67
2023/06/01 11:46:23;;;;;;;4.80;3.87;;;28.00;89.60;;;;;;5050688;28;20794;-67
2023/06/01 11:49:01;;;;;;;3.70;3.40;;;28.00;90.10;;;;;;5050745;28;21218;-68
2023/06/01 11:51:29;;;;;;;3.73;3.40;;;27.90;90.80;;;;;;5050067;28;20549;-68
2023/06/01 11:53:57;;;;;;;4.73;3.67;;;27.90;90.20;;;;;;5050546;28;20462;-68
2023/06/01 11:56:30;;;;;;;4.67;3.80;;;27.90;90.60;;;;;;5050803;28;20712;-68
2023/06/01 11:58:59;;;;;;;4.23;3.37;;;27.90;91.40;;;;;;5049863;28;20537;-68
2023/06/01 12:01:26;;;;;;;7.10;3.80;;;27.90;92.80;;;;;;5049878;28;20502;-67
2023/06/01 12:03:54;;;;;;;3.50;3.20;;;27.90;91.30;;;;;;5050630;28;20790;-67
2023/06/01 12:06:21;;;;;;;4.00;3.60;;;28.00;91.80;;;;;;5049251;28;20470;-67
2023/06/01 12:08:50;;;;;;;5.50;3.90;;;28.10;93.20;;;;;;5049497;28;20493;-68
2023/06/01 12:11:21;;;;;;;3.83;3.50;;;28.20;90.90;;;;;;5048908;28;20546;-68
2023/06/01 12:13:48;;;;;;;4.80;2.73;;;28.30;90.10;;;;;;5049841;28;20950;-68
2023/06/01 12:16:16;;;;;;;3.80;3.50;;;28.20;91.20;;;;;;5049571;28;20470;-68
2023/06/01 12:18:43;;;;;;;3.90;3.50;;;28.40;90.80;;;;;;5049291;28;20941;-68
2023/06/01 12:21:10;;;;;;;5.43;3.17;;;28.20;90.60;;;;;;5049173;28;20474;-68
2023/06/01 12:23:37;;;;;;;3.20;2.90;;;28.30;90.30;;;;;;5049658;28;20472;-67
2023/06/01 12:26:04;;;;;;;5.00;3.70;;;28.30;89.40;;;;;;5049640;28;20513;-68
2023/06/01 12:28:48;;;;;;;4.30;3.23;;;28.30;90.40;;;;;;5049015;28;20869;-67
2023/06/01 12:31:17;;;;;;;3.37;3.07;;;28.40;90.70;;;;;;5048381;28;20905;-68
2023/06/01 12:33:45;;;;;;;5.23;4.30;;;28.60;89.10;;;;;;5049959;28;20451;-68
2023/06/01 12:36:28;;;;;;;5.50;4.20;;;28.60;90.40;;;;;;5048746;28;20842;-67
2023/06/01 12:38:57;;;;;;;5.23;3.47;;;28.70;86.30;;;;;;5049124;28;20475;-68
2023/06/01 12:41:23;;;;;;;3.80;3.50;;;28.60;85.40;;;;;;5048976;28;20460;-68
2023/06/01 12:43:53;;;;;;;3.80;3.50;;;28.60;89.90;;;;;;5049031;28;20860;-67
2023/06/01 12:46:20;;;;;;;4.83;4.00;;;28.70;85.50;;;;;;5049328;28;20467;-68
2023/06/01 12:48:47;;;;;;;5.00;3.70;;;28.60;88.40;;;;;;5049027;28;20483;-68
2023/06/01 12:51:14;;;;;;;3.60;3.30;;;28.70;87.10;;;;;;5048570;28;20463;-67
2023/06/01 12:53:42;;;;;;;6.30;3.70;;;28.70;87.60;;;;;;5049404;28;20464;-68
2023/06/01 12:56:08;;;;;;;3.97;3.60;;;28.80;83.00;;;;;;5048930;28;20463;-68
2023/06/01 12:58:35;;;;;;;3.53;3.23;;;28.70;86.00;;;;;;5048553;28;20983;-68